Time;durP1;ratioP1;P1;durP2;ratioP2;P2;SDS_P1;SDS_P2;PMS_P1;PMS_P2;Temp;Humidity;BMP_temperature;BMP_pressure;BME280_temperature;BME280_humidity;BME280_pressure;Samples;Min_cycle;Max_cycle;Signal;HPM_P1;HPM_P2
2022/12/18 00:01:31;;;;;;;13.40;7.32;;;;;;;;;;5040878;28;20041;-73
2022/12/18 00:03:57;;;;;;;6.50;4.38;;;;;;;;;;5009823;28;20042;-73
2022/12/18 00:06:24;;;;;;;16.42;6.05;;;;;;;;;;5026994;28;20081;-75
2022/12/18 00:08:50;;;;;;;22.40;6.90;;;;;;;;;;5020931;28;20065;-74
2022/12/18 00:11:18;;;;;;;17.10;5.68;;;;;;;;;;5037579;28;20038;-74
2022/12/18 00:13:44;;;;;;;17.30;6.85;;;;;;;;;;5005663;28;20034;-74
2022/12/18 00:16:12;;;;;;;18.50;6.68;;;;;;;;;;5020022;28;20500;-74
2022/12/18 00:18:38;;;;;;;11.52;7.25;;;;;;;;;;5002320;28;20129;-74
2022/12/18 00:21:05;;;;;;;12.40;7.05;;;;;;;;;;5021043;28;20117;-73
2022/12/18 00:23:31;;;;;;;15.02;8.07;;;;;;;;;;5024851;28;20473;-74
2022/12/18 00:26:00;;;;;;;10.02;6.50;;;;;;;;;;5017980;28;20030;-74
2022/12/18 00:28:26;;;;;;;16.00;6.20;;;;;;;;;;5026463;28;20509;-74
2022/12/18 00:31:02;;;;;;;21.35;6.82;;;;;;;;;;5026050;28;20034;-73
2022/12/18 00:33:28;;;;;;;14.02;5.13;;;;;;;;;;5030216;28;20176;-75
2022/12/18 00:35:53;;;;;;;7.78;5.30;;;;;;;;;;5015672;28;20113;-74
2022/12/18 00:38:19;;;;;;;7.63;4.57;;;;;;;;;;5009798;28;20038;-74
2022/12/18 00:40:44;;;;;;;8.05;5.40;;;;;;;;;;5010545;28;20041;-73
2022/12/18 00:43:09;;;;;;;11.88;6.40;;;;;;;;;;5022407;28;20037;-73
2022/12/18 00:45:35;;;;;;;9.88;4.70;;;;;;;;;;5017469;28;20048;-74
2022/12/18 00:48:00;;;;;;;7.20;4.43;;;;;;;;;;5028014;28;20228;-73
2022/12/18 00:50:26;;;;;;;7.15;3.85;;;;;;;;;;5029244;28;20398;-73
2022/12/18 00:52:51;;;;;;;10.02;4.90;;;;;;;;;;5046577;28;20080;-73
2022/12/18 00:55:17;;;;;;;10.32;4.65;;;;;;;;;;5019874;28;20072;-74
2022/12/18 00:57:43;;;;;;;9.48;4.03;;;;;;;;;;5013767;28;20034;-73
2022/12/18 01:00:12;;;;;;;11.68;5.45;;;;;;;;;;5020332;28;20046;-73
2022/12/18 01:02:37;;;;;;;8.98;5.53;;;;;;;;;;5021872;28;20076;-76
2022/12/18 01:05:03;;;;;;;9.10;4.88;;;;;;;;;;5023045;28;20037;-74
2022/12/18 01:07:28;;;;;;;13.23;5.40;;;;;;;;;;5019691;28;20030;-74
2022/12/18 01:09:54;;;;;;;14.10;5.05;;;;;;;;;;5021780;28;20036;-73
2022/12/18 01:12:19;;;;;;;14.88;5.00;;;;;;;;;;5031680;28;20491;-73
2022/12/18 01:14:45;;;;;;;11.35;5.32;;;;;;;;;;5025806;28;20034;-74
2022/12/18 01:17:10;;;;;;;14.07;6.60;;;;;;;;;;5029776;28;20030;-73
2022/12/18 01:19:35;;;;;;;8.25;5.03;;;;;;;;;;5025384;28;20033;-74
2022/12/18 01:22:01;;;;;;;11.98;6.22;;;;;;;;;;5035055;28;20496;-74
2022/12/18 01:24:26;;;;;;;7.72;5.10;;;;;;;;;;5033456;28;20120;-74
2022/12/18 01:26:52;;;;;;;10.52;4.30;;;;;;;;;;5022715;28;20041;-74
2022/12/18 01:29:17;;;;;;;8.82;3.35;;;;;;;;;;5030774;28;20046;-73
2022/12/18 01:31:43;;;;;;;13.82;6.85;;;;;;;;;;5028594;28;20079;-75
2022/12/18 01:34:08;;;;;;;13.52;6.47;;;;;;;;;;5043385;28;20125;-74
2022/12/18 01:36:38;;;;;;;6.20;3.20;;;;;;;;;;5004428;28;20037;-76
2022/12/18 01:39:06;;;;;;;7.30;3.63;;;;;;;;;;5012627;28;20060;-73
2022/12/18 01:45:03;;;;;;;9.63;4.28;;;;;;;;;;4994107;28;20078;-73
2022/12/18 01:47:39;;;;;;;5.28;3.40;;;;;;;;;;4993961;28;20073;-74
2022/12/18 01:50:18;;;;;;;8.38;4.35;;;;;;;;;;5002929;28;20061;-73
2022/12/18 01:53:12;;;;;;;11.00;4.07;;;;;;;;;;5029596;28;20433;-73
2022/12/18 01:55:42;;;;;;;12.02;5.43;;;;;;;;;;5021390;28;20045;-73
2022/12/18 01:58:07;;;;;;;13.20;5.55;;;;;;;;;;5020312;28;20477;-73
2022/12/18 02:00:33;;;;;;;12.23;4.47;;;;;;;;;;5027233;28;20099;-74
2022/12/18 02:02:58;;;;;;;13.10;4.35;;;;;;;;;;5035720;28;20033;-73
2022/12/18 02:05:56;;;;;;;9.00;5.05;;;;;;;;;;5002904;28;20052;-74
2022/12/18 02:08:37;;;;;;;4.43;2.97;;;;;;;;;;5032052;28;20586;-75
2022/12/18 02:11:07;;;;;;;5.40;3.38;;;;;;;;;;5003439;28;20035;-73
2022/12/18 02:13:54;;;;;;;4.88;3.15;;;;;;;;;;5020344;28;20053;-73
2022/12/18 02:16:25;;;;;;;6.53;3.97;;;;;;;;;;5015301;28;20440;-74
2022/12/18 02:18:56;;;;;;;8.13;3.33;;;;;;;;;;5026899;28;20731;-74
2022/12/18 02:21:56;;;;;;;3.42;2.20;;;;;;;;;;5000745;28;20050;-74
2022/12/18 02:24:30;;;;;;;6.88;2.25;;;;;;;;;;5014509;28;20057;-74
2022/12/18 02:27:03;;;;;;;8.80;3.92;;;;;;;;;;5034874;28;20127;-74
2022/12/18 02:29:36;;;;;;;14.80;5.43;;;;;;;;;;5031635;28;20379;-74
2022/12/18 02:32:04;;;;;;;10.10;5.78;;;;;;;;;;5022213;28;20111;-74
2022/12/18 02:34:31;;;;;;;13.18;6.32;;;;;;;;;;5032342;28;20065;-74
2022/12/18 02:36:59;;;;;;;12.02;6.63;;;;;;;;;;5010629;28;20071;-73
2022/12/18 02:39:26;;;;;;;9.68;5.18;;;;;;;;;;5024448;28;20501;-74
2022/12/18 02:41:52;;;;;;;9.70;5.63;;;;;;;;;;5041649;28;20042;-74
2022/12/18 02:44:17;;;;;;;12.45;5.22;;;;;;;;;;5020363;28;20104;-74
2022/12/18 02:46:46;;;;;;;6.18;4.10;;;;;;;;;;5020435;28;20088;-73
2022/12/18 02:49:27;;;;;;;6.68;3.17;;;;;;;;;;5032285;28;20053;-73
2022/12/18 02:51:56;;;;;;;4.40;3.13;;;;;;;;;;4999055;28;20045;-74
2022/12/18 02:54:52;;;;;;;10.50;4.18;;;;;;;;;;5006915;28;20127;-73
2022/12/18 02:57:54;;;;;;;11.18;4.35;;;;;;;;;;5015197;28;20095;-73
2022/12/18 03:00:22;;;;;;;4.03;2.63;;;;;;;;;;5011872;28;20037;-74
2022/12/18 03:02:50;;;;;;;12.40;4.47;;;;;;;;;;5035182;28;20034;-73
2022/12/18 03:05:22;;;;;;;3.65;2.75;;;;;;;;;;5023467;28;20112;-73
2022/12/18 03:08:07;;;;;;;8.32;2.55;;;;;;;;;;4999342;28;20038;-73
2022/12/18 03:10:35;;;;;;;5.00;2.40;;;;;;;;;;5022382;28;20037;-73
2022/12/18 03:13:05;;;;;;;9.15;3.90;;;;;;;;;;5038956;28;20103;-74
2022/12/18 03:15:39;;;;;;;7.20;3.58;;;;;;;;;;5041684;28;20041;-74
2022/12/18 03:18:20;;;;;;;7.07;3.83;;;;;;;;;;5039495;28;20042;-74
2022/12/18 03:20:47;;;;;;;10.60;3.92;;;;;;;;;;5033394;28;20033;-73
2022/12/18 03:23:17;;;;;;;8.43;3.50;;;;;;;;;;5024235;28;20073;-73
2022/12/18 03:25:44;;;;;;;6.10;3.10;;;;;;;;;;5009643;28;20099;-74
2022/12/18 03:28:13;;;;;;;7.45;3.30;;;;;;;;;;5020154;28;20029;-74
2022/12/18 03:30:41;;;;;;;9.15;4.32;;;;;;;;;;5033353;28;20035;-73
2022/12/18 03:33:12;;;;;;;7.60;3.63;;;;;;;;;;5038320;28;20484;-74
2022/12/18 03:35:40;;;;;;;8.52;3.70;;;;;;;;;;5029573;28;20038;-76
2022/12/18 03:38:06;;;;;;;8.10;4.20;;;;;;;;;;4998806;28;20053;-73
2022/12/18 03:40:37;;;;;;;6.45;3.58;;;;;;;;;;5028056;28;20127;-74
2022/12/18 03:43:10;;;;;;;13.98;4.32;;;;;;;;;;5022301;28;20049;-74
2022/12/18 03:45:39;;;;;;;4.25;2.90;;;;;;;;;;5021648;28;20026;-73
2022/12/18 03:48:06;;;;;;;9.95;5.07;;;;;;;;;;5025346;28;20043;-73
2022/12/18 03:50:48;;;;;;;5.88;3.42;;;;;;;;;;5027890;28;20033;-74
2022/12/18 03:53:37;;;;;;;4.78;3.22;;;;;;;;;;5008294;28;20049;-74
2022/12/18 03:56:03;;;;;;;6.20;3.67;;;;;;;;;;5002279;28;20038;-73
2022/12/18 03:58:32;;;;;;;11.45;4.30;;;;;;;;;;5013276;28;20041;-74
2022/12/18 04:00:59;;;;;;;7.07;3.95;;;;;;;;;;5032298;28;20061;-73
2022/12/18 04:03:25;;;;;;;10.93;4.35;;;;;;;;;;5033540;28;20109;-74
2022/12/18 04:05:52;;;;;;;10.65;3.20;;;;;;;;;;5013019;28;20039;-74
2022/12/18 04:08:18;;;;;;;12.82;4.22;;;;;;;;;;5026477;28;20454;-73
2022/12/18 04:10:44;;;;;;;9.13;4.00;;;;;;;;;;5015357;28;20381;-74
2022/12/18 04:13:09;;;;;;;15.18;4.30;;;;;;;;;;5016650;28;20073;-73
2022/12/18 04:15:36;;;;;;;9.13;3.97;;;;;;;;;;5022129;28;20080;-73
2022/12/18 04:18:02;;;;;;;8.23;4.57;;;;;;;;;;5038529;28;20037;-73
2022/12/18 04:20:27;;;;;;;15.43;6.25;;;;;;;;;;5025894;28;20038;-74
2022/12/18 04:22:52;;;;;;;10.95;4.50;;;;;;;;;;5013699;28;20118;-73
2022/12/18 04:25:18;;;;;;;11.38;5.00;;;;;;;;;;5021483;28;20034;-73
2022/12/18 04:27:43;;;;;;;12.20;4.50;;;;;;;;;;5019754;28;20118;-73
2022/12/18 04:30:09;;;;;;;6.75;4.05;;;;;;;;;;5019992;28;20041;-74
2022/12/18 04:32:35;;;;;;;8.05;4.60;;;;;;;;;;5003017;28;20044;-73
2022/12/18 04:35:00;;;;;;;14.63;5.40;;;;;;;;;;5022069;28;20045;-73
2022/12/18 04:37:26;;;;;;;11.88;6.47;;;;;;;;;;5015780;28;20041;-73
2022/12/18 04:39:51;;;;;;;12.25;5.88;;;;;;;;;;5022755;28;20112;-73
2022/12/18 04:42:17;;;;;;;11.50;5.43;;;;;;;;;;5016336;28;20044;-73
2022/12/18 04:44:42;;;;;;;10.95;4.15;;;;;;;;;;5018687;28;20124;-74
2022/12/18 04:47:07;;;;;;;8.15;4.68;;;;;;;;;;5015915;28;20458;-73
2022/12/18 04:49:33;;;;;;;11.48;3.53;;;;;;;;;;5026964;28;20132;-74
2022/12/18 04:51:58;;;;;;;8.50;3.83;;;;;;;;;;5028114;28;20088;-73
2022/12/18 04:54:23;;;;;;;8.35;4.32;;;;;;;;;;5026834;28;20026;-74
2022/12/18 04:56:49;;;;;;;5.60;3.28;;;;;;;;;;5013959;28;20486;-74
2022/12/18 04:59:14;;;;;;;7.60;3.67;;;;;;;;;;5042290;28;20038;-73
2022/12/18 05:01:40;;;;;;;4.95;3.22;;;;;;;;;;5019945;28;20161;-73
2022/12/18 05:04:05;;;;;;;12.82;4.10;;;;;;;;;;5023686;28;20092;-73
2022/12/18 05:06:30;;;;;;;8.13;4.13;;;;;;;;;;5030858;28;20052;-74
2022/12/18 05:08:56;;;;;;;5.85;3.55;;;;;;;;;;5000794;28;20029;-73
2022/12/18 05:11:21;;;;;;;10.57;4.18;;;;;;;;;;5016919;28;20121;-73
2022/12/18 05:13:47;;;;;;;8.75;4.07;;;;;;;;;;5025195;28;20045;-73
2022/12/18 05:16:13;;;;;;;9.70;4.20;;;;;;;;;;5025727;28;20026;-73
2022/12/18 05:18:38;;;;;;;11.48;4.28;;;;;;;;;;5045326;28;20046;-74
2022/12/18 05:21:04;;;;;;;11.60;4.15;;;;;;;;;;5019472;28;20445;-73
2022/12/18 05:23:30;;;;;;;8.75;3.85;;;;;;;;;;5019951;28;20030;-74
2022/12/18 05:26:03;;;;;;;6.13;3.60;;;;;;;;;;5020374;28;20038;-74
2022/12/18 05:28:30;;;;;;;8.00;4.07;;;;;;;;;;5025133;28;20041;-73
2022/12/18 05:30:58;;;;;;;14.57;4.22;;;;;;;;;;5024928;28;20065;-73
2022/12/18 05:33:24;;;;;;;9.98;4.47;;;;;;;;;;5011935;28;20061;-74
2022/12/18 05:35:54;;;;;;;7.60;3.85;;;;;;;;;;4999560;28;20079;-73
2022/12/18 05:38:21;;;;;;;7.65;4.03;;;;;;;;;;5030596;28;20401;-74
2022/12/18 05:40:50;;;;;;;9.18;4.80;;;;;;;;;;5026648;28;20064;-73
2022/12/18 05:43:16;;;;;;;8.82;3.80;;;;;;;;;;5027177;28;20034;-74
2022/12/18 05:45:41;;;;;;;8.57;3.83;;;;;;;;;;5005573;28;20041;-73
2022/12/18 05:48:07;;;;;;;10.48;3.53;;;;;;;;;;5006193;28;20401;-74
2022/12/18 05:50:37;;;;;;;7.60;3.95;;;;;;;;;;5004248;28;20070;-74
2022/12/18 05:53:04;;;;;;;7.32;3.80;;;;;;;;;;5021151;28;20100;-74
2022/12/18 05:55:33;;;;;;;8.32;4.43;;;;;;;;;;5007970;28;20045;-73
2022/12/18 05:57:58;;;;;;;6.95;3.75;;;;;;;;;;5024365;28;20025;-74
2022/12/18 06:00:25;;;;;;;17.33;8.48;;;;;;;;;;5031426;28;20037;-74
2022/12/18 06:02:51;;;;;;;7.32;3.97;;;;;;;;;;5026643;28;20040;-74
2022/12/18 06:05:16;;;;;;;7.72;4.00;;;;;;;;;;5033518;28;20033;-73
2022/12/18 06:07:41;;;;;;;10.55;4.68;;;;;;;;;;5016442;28;20046;-73
2022/12/18 06:10:07;;;;;;;14.48;3.90;;;;;;;;;;5018130;28;20129;-73
2022/12/18 06:12:35;;;;;;;11.13;4.70;;;;;;;;;;5030331;28;20025;-73
2022/12/18 06:15:01;;;;;;;18.10;9.43;;;;;;;;;;5024211;28;20096;-73
2022/12/18 06:17:30;;;;;;;12.07;6.93;;;;;;;;;;5029439;28;20029;-74
2022/12/18 06:19:55;;;;;;;25.17;11.77;;;;;;;;;;5033084;28;20492;-74
2022/12/18 06:22:21;;;;;;;8.68;5.63;;;;;;;;;;5029901;28;20034;-73
2022/12/18 06:24:46;;;;;;;13.02;7.68;;;;;;;;;;5004437;28;20049;-72
2022/12/18 06:27:11;;;;;;;8.57;3.75;;;;;;;;;;5018433;28;20034;-73
2022/12/18 06:29:37;;;;;;;12.05;6.28;;;;;;;;;;5028526;28;20037;-73
2022/12/18 06:32:02;;;;;;;23.90;14.15;;;;;;;;;;5020931;28;20048;-73
2022/12/18 06:34:30;;;;;;;42.97;13.70;;;;;;;;;;5032594;28;20037;-73
2022/12/18 06:36:56;;;;;;;22.48;10.68;;;;;;;;;;5023871;28;20029;-74
2022/12/18 06:39:21;;;;;;;18.88;10.70;;;;;;;;;;5028779;28;20052;-73
2022/12/18 06:41:47;;;;;;;30.75;12.90;;;;;;;;;;5024935;28;20083;-73
2022/12/18 06:44:12;;;;;;;19.17;9.82;;;;;;;;;;5024944;28;20076;-73
2022/12/18 06:46:37;;;;;;;26.48;10.57;;;;;;;;;;5016279;28;20121;-73
2022/12/18 06:49:03;;;;;;;18.08;9.77;;;;;;;;;;5018348;28;20079;-73
2022/12/18 06:51:29;;;;;;;21.23;10.52;;;;;;;;;;5024134;28;20046;-74
2022/12/18 06:53:54;;;;;;;28.73;10.85;;;;;;;;;;5019198;28;20033;-73
2022/12/18 06:56:19;;;;;;;26.75;10.70;;;;;;;;;;5016140;28;20084;-73
2022/12/18 06:58:45;;;;;;;27.15;11.10;;;;;;;;;;5038314;28;20038;-74
2022/12/18 07:01:11;;;;;;;23.65;9.90;;;;;;;;;;5033413;28;20144;-73
2022/12/18 07:03:38;;;;;;;30.60;11.77;;;;;;;;;;5030826;28;20030;-73
2022/12/18 07:06:04;;;;;;;31.70;10.45;;;;;;;;;;5028824;28;20549;-73
2022/12/18 07:08:30;;;;;;;28.98;11.32;;;;;;;;;;5027360;28;20125;-73
2022/12/18 07:10:56;;;;;;;31.85;12.43;;;;;;;;;;5016117;28;20390;-74
2022/12/18 07:13:21;;;;;;;27.27;10.73;;;;;;;;;;5023903;28;20092;-73
2022/12/18 07:15:46;;;;;;;24.63;9.90;;;;;;;;;;5021573;28;20045;-74
2022/12/18 07:18:12;;;;;;;25.02;10.40;;;;;;;;;;5033829;28;20521;-73
2022/12/18 07:20:37;;;;;;;25.60;8.73;;;;;;;;;;5019937;28;20484;-73
2022/12/18 07:23:05;;;;;;;18.80;7.25;;;;;;;;;;5015902;28;20034;-73
2022/12/18 07:25:37;;;;;;;25.15;9.68;;;;;;;;;;5024406;28;20029;-74
2022/12/18 07:28:03;;;;;;;15.70;8.23;;;;;;;;;;5028177;28;20041;-74
2022/12/18 07:30:29;;;;;;;18.75;8.10;;;;;;;;;;5026609;28;20048;-74
2022/12/18 07:32:54;;;;;;;21.20;9.95;;;;;;;;;;5028766;28;20025;-73
2022/12/18 07:35:19;;;;;;;23.27;8.15;;;;;;;;;;5032249;28;20439;-73
2022/12/18 07:37:45;;;;;;;26.52;9.90;;;;;;;;;;5029190;28;20109;-75
2022/12/18 07:40:11;;;;;;;17.45;7.55;;;;;;;;;;5020955;28;20046;-76
2022/12/18 07:42:36;;;;;;;18.15;7.05;;;;;;;;;;5028194;28;20482;-73
2022/12/18 07:45:02;;;;;;;23.98;8.35;;;;;;;;;;5022295;28;20026;-73
2022/12/18 07:47:28;;;;;;;15.35;7.68;;;;;;;;;;5031959;28;20037;-75
2022/12/18 07:49:53;;;;;;;26.08;9.38;;;;;;;;;;5028659;28;20050;-73
2022/12/18 07:52:19;;;;;;;23.95;9.93;;;;;;;;;;5022057;28;20448;-74
2022/12/18 07:54:45;;;;;;;13.57;6.55;;;;;;;;;;5020503;28;20045;-74
2022/12/18 07:57:10;;;;;;;25.95;9.38;;;;;;;;;;5019877;28;20044;-74
2022/12/18 07:59:36;;;;;;;15.93;5.68;;;;;;;;;;5020424;28;20087;-74
2022/12/18 08:02:01;;;;;;;12.50;5.78;;;;;;;;;;5026731;28;20121;-74
2022/12/18 08:04:27;;;;;;;12.90;5.72;;;;;;;;;;5023056;28;20056;-75
2022/12/18 08:06:53;;;;;;;16.85;6.90;;;;;;;;;;5022123;28;20025;-75
2022/12/18 08:09:18;;;;;;;21.42;8.55;;;;;;;;;;5025582;28;20397;-74
2022/12/18 08:11:44;;;;;;;36.38;9.65;;;;;;;;;;5002542;28;20140;-75
2022/12/18 08:14:09;;;;;;;26.70;9.32;;;;;;;;;;4763498;28;20053;-74
2022/12/18 08:16:35;;;;;;;31.88;10.90;;;;;;;;;;4952610;28;20050;-74
2022/12/18 08:19:00;;;;;;;43.97;19.50;;;;;;;;;;5009655;28;20449;-74
2022/12/18 08:21:28;;;;;;;25.80;10.73;;;;;;;;;;5023777;28;20041;-74
2022/12/18 08:23:57;;;;;;;30.30;12.98;;;;;;;;;;5019757;28;21606;-74
2022/12/18 08:26:23;;;;;;;22.50;11.40;;;;;;;;;;5028111;28;20038;-74
2022/12/18 08:28:49;;;;;;;18.58;8.13;;;;;;;;;;4894658;28;20581;-74
2022/12/18 08:31:15;;;;;;;20.65;10.88;;;;;;;;;;5015960;28;20033;-74
2022/12/18 08:33:41;;;;;;;19.63;9.98;;;;;;;;;;5028375;28;20048;-74
2022/12/18 08:36:06;;;;;;;15.38;5.53;;;;;;;;;;5016411;28;20036;-75
2022/12/18 08:38:32;;;;;;;23.02;10.02;;;;;;;;;;5026859;28;20397;-74
2022/12/18 08:41:00;;;;;;;17.95;9.05;;;;;;;;;;5045032;28;20114;-74
2022/12/18 08:46:09;;;;;;;19.65;7.50;;;;;;;;;;5015041;28;20552;-75
2022/12/18 08:48:35;;;;;;;22.45;10.75;;;;;;;;;;5007000;28;20124;-74
2022/12/18 08:51:01;;;;;;;16.52;6.50;;;;;;;;;;5014822;28;20040;-75
2022/12/18 08:53:27;;;;;;;22.73;9.07;;;;;;;;;;5018584;28;20112;-76
2022/12/18 08:55:53;;;;;;;24.17;8.73;;;;;;;;;;5032209;28;20389;-76
2022/12/18 08:58:18;;;;;;;24.65;9.00;;;;;;;;;;5033327;28;20033;-75
2022/12/18 09:00:44;;;;;;;25.15;9.63;;;;;;;;;;5014786;28;20046;-76
2022/12/18 09:03:13;;;;;;;15.50;6.78;;;;;;;;;;5026102;28;20120;-75
2022/12/18 09:05:38;;;;;;;30.55;10.05;;;;;;;;;;4999724;28;20025;-75
2022/12/18 09:08:04;;;;;;;23.63;8.27;;;;;;;;;;5014558;28;20527;-77
2022/12/18 09:10:29;;;;;;;27.95;10.10;;;;;;;;;;5017169;28;20042;-76
2022/12/18 09:12:56;;;;;;;18.98;7.82;;;;;;;;;;5014219;28;20074;-79
2022/12/18 09:15:22;;;;;;;23.17;7.97;;;;;;;;;;5005136;28;20079;-76
2022/12/18 09:17:47;;;;;;;19.58;8.05;;;;;;;;;;5013171;28;20034;-76
2022/12/18 09:20:13;;;;;;;26.55;10.52;;;;;;;;;;5031996;28;20034;-76
2022/12/18 09:22:38;;;;;;;24.60;10.68;;;;;;;;;;5025320;28;20037;-75
2022/12/18 09:25:07;;;;;;;26.75;9.57;;;;;;;;;;5006765;28;20041;-75
2022/12/18 09:27:32;;;;;;;21.27;9.38;;;;;;;;;;5017173;28;20061;-74
2022/12/18 09:29:57;;;;;;;28.75;10.68;;;;;;;;;;5018808;28;20060;-74
2022/12/18 09:32:23;;;;;;;22.00;9.88;;;;;;;;;;5022352;28;20038;-75
2022/12/18 09:34:49;;;;;;;26.77;9.25;;;;;;;;;;5024482;28;20037;-75
2022/12/18 09:37:14;;;;;;;26.75;10.32;;;;;;;;;;5020814;28;20038;-74
2022/12/18 09:39:39;;;;;;;30.33;11.02;;;;;;;;;;5021391;28;20040;-74
2022/12/18 09:42:06;;;;;;;16.38;8.32;;;;;;;;;;5030685;28;20109;-74
2022/12/18 09:44:43;;;;;;;14.90;7.57;;;;;;;;;;5034817;28;20026;-74
2022/12/18 09:47:17;;;;;;;23.48;9.18;;;;;;;;;;5011549;28;20041;-74
2022/12/18 09:49:45;;;;;;;16.80;8.95;;;;;;;;;;5023280;28;20084;-74
2022/12/18 09:52:37;;;;;;;17.60;7.97;;;;;;;;;;5025347;28;20038;-74
2022/12/18 09:55:25;;;;;;;18.48;8.07;;;;;;;;;;4999962;28;20454;-75
2022/12/18 09:57:55;;;;;;;31.60;10.48;;;;;;;;;;5021390;28;20112;-74
2022/12/18 10:00:24;;;;;;;22.42;9.80;;;;;;;;;;5035962;28;20037;-75
2022/12/18 10:02:52;;;;;;;12.20;6.07;;;;;;;;;;5008216;28;20046;-74
2022/12/18 10:05:29;;;;;;;18.80;6.93;;;;;;;;;;5028583;28;20043;-74
2022/12/18 10:08:09;;;;;;;24.00;9.07;;;;;;;;;;5034156;28;20096;-74
2022/12/18 10:11:01;;;;;;;18.80;8.75;;;;;;;;;;5023203;28;20045;-74
2022/12/18 10:13:48;;;;;;;19.02;10.18;;;;;;;;;;5015801;28;20049;-75
2022/12/18 10:16:29;;;;;;;23.20;9.05;;;;;;;;;;5026090;28;20042;-75
2022/12/18 10:19:18;;;;;;;22.33;10.90;;;;;;;;;;5018506;28;20044;-75
2022/12/18 10:22:07;;;;;;;14.75;7.28;;;;;;;;;;5014816;28;20036;-75
2022/12/18 10:24:43;;;;;;;16.38;9.02;;;;;;;;;;5026302;28;20092;-75
2022/12/18 10:27:14;;;;;;;13.43;6.07;;;;;;;;;;5008301;28;20045;-75
2022/12/18 10:29:41;;;;;;;17.95;7.93;;;;;;;;;;4998969;28;20257;-75
2022/12/18 10:32:07;;;;;;;14.55;7.20;;;;;;;;;;5024371;28;20029;-75
2022/12/18 10:34:32;;;;;;;17.38;7.75;;;;;;;;;;5019984;28;20052;-75
2022/12/18 10:37:00;;;;;;;20.90;8.55;;;;;;;;;;5017138;28;20053;-75
2022/12/18 10:39:26;;;;;;;26.25;9.10;;;;;;;;;;5023160;28;20038;-75
2022/12/18 10:41:51;;;;;;;16.25;5.97;;;;;;;;;;5018137;28;20057;-75
2022/12/18 10:44:20;;;;;;;20.55;8.60;;;;;;;;;;5013057;28;20041;-75
2022/12/18 10:46:50;;;;;;;22.70;9.25;;;;;;;;;;5026876;28;20481;-75
2022/12/18 10:49:25;;;;;;;25.95;8.82;;;;;;;;;;4994225;28;20050;-75
2022/12/18 10:51:51;;;;;;;21.17;8.57;;;;;;;;;;5000631;28;20033;-76
2022/12/18 10:54:23;;;;;;;15.05;8.98;;;;;;;;;;5008341;28;20049;-75
2022/12/18 10:56:49;;;;;;;15.52;8.50;;;;;;;;;;5036186;28;20556;-76
2022/12/18 10:59:17;;;;;;;16.58;8.60;;;;;;;;;;4997419;28;20030;-75
2022/12/18 11:01:54;;;;;;;22.15;9.23;;;;;;;;;;4996707;28;20666;-75
2022/12/18 11:04:28;;;;;;;18.20;8.40;;;;;;;;;;5023265;28;20049;-75
2022/12/18 11:07:01;;;;;;;14.00;7.25;;;;;;;;;;5011209;28;20469;-75
2022/12/18 11:09:28;;;;;;;14.43;6.10;;;;;;;;;;5009396;28;20476;-76
2022/12/18 11:11:59;;;;;;;22.80;9.18;;;;;;;;;;5000717;28;20042;-75
2022/12/18 11:14:53;;;;;;;19.83;9.88;;;;;;;;;;5002967;28;20087;-75
2022/12/18 11:17:41;;;;;;;19.33;7.47;;;;;;;;;;5027384;28;20111;-74
2022/12/18 11:20:26;;;;;;;18.95;8.02;;;;;;;;;;5032351;28;20052;-75
2022/12/18 11:22:56;;;;;;;20.23;8.75;;;;;;;;;;5029202;28;20037;-75
2022/12/18 11:25:22;;;;;;;19.80;8.07;;;;;;;;;;5026291;28;20046;-75
2022/12/18 11:28:27;;;;;;;18.50;8.88;;;;;;;;;;5020274;28;20028;-75
2022/12/18 11:31:28;;;;;;;19.80;9.73;;;;;;;;;;4996501;28;20095;-76
2022/12/18 11:34:15;;;;;;;22.30;9.48;;;;;;;;;;4994399;28;20406;-77
2022/12/18 11:36:43;;;;;;;19.80;7.22;;;;;;;;;;5005457;28;20051;-75
2022/12/18 11:39:34;;;;;;;19.98;8.50;;;;;;;;;;5022116;28;20037;-76
2022/12/18 11:42:11;;;;;;;24.75;10.88;;;;;;;;;;5011464;28;20042;-76
2022/12/18 11:44:59;;;;;;;16.88;9.05;;;;;;;;;;5017303;28;20041;-75
2022/12/18 11:47:31;;;;;;;27.02;9.55;;;;;;;;;;5005146;28;20041;-75
2022/12/18 11:50:00;;;;;;;19.42;9.30;;;;;;;;;;4999747;28;20050;-76
2022/12/18 11:52:30;;;;;;;23.70;10.07;;;;;;;;;;5015804;28;20049;-76
2022/12/18 11:54:58;;;;;;;24.55;11.18;;;;;;;;;;5026438;28;20042;-75
2022/12/18 11:57:34;;;;;;;20.63;9.73;;;;;;;;;;5031733;28;20439;-76
2022/12/18 12:00:14;;;;;;;27.63;12.68;;;;;;;;;;5013032;28;20084;-75
2022/12/18 12:02:58;;;;;;;21.38;9.35;;;;;;;;;;5026991;28;20080;-76
2022/12/18 12:05:51;;;;;;;31.58;10.10;;;;;;;;;;5017907;28;20045;-76
2022/12/18 12:08:38;;;;;;;22.15;9.63;;;;;;;;;;5030541;28;20543;-75
2022/12/18 12:11:29;;;;;;;19.55;9.98;;;;;;;;;;5025702;28;20034;-75
2022/12/18 12:14:13;;;;;;;22.50;7.90;;;;;;;;;;5014425;28;20122;-76
2022/12/18 12:16:56;;;;;;;21.45;8.90;;;;;;;;;;5022953;28;20034;-75
2022/12/18 12:19:50;;;;;;;16.05;6.47;;;;;;;;;;4994870;28;20045;-76
2022/12/18 12:22:22;;;;;;;13.82;7.55;;;;;;;;;;5016825;28;20037;-75
2022/12/18 12:25:05;;;;;;;20.25;9.50;;;;;;;;;;5036048;28;20164;-75
2022/12/18 12:27:42;;;;;;;27.92;13.15;;;;;;;;;;5017082;28;20406;-76
2022/12/18 12:30:46;;;;;;;22.00;9.70;;;;;;;;;;5025649;28;20061;-75
2022/12/18 12:33:27;;;;;;;19.03;8.43;;;;;;;;;;5005616;28;20064;-76
2022/12/18 12:36:00;;;;;;;22.85;10.50;;;;;;;;;;5019380;28;20274;-76
2022/12/18 12:38:55;;;;;;;21.30;7.90;;;;;;;;;;5026904;28;20041;-74
2022/12/18 12:44:13;;;;;;;15.88;8.18;;;;;;;;;;5037106;28;20048;-75
2022/12/18 12:46:41;;;;;;;17.02;8.07;;;;;;;;;;5033894;28;20088;-76
2022/12/18 12:49:14;;;;;;;17.63;8.35;;;;;;;;;;5007715;28;20155;-76
2022/12/18 12:51:42;;;;;;;32.97;12.68;;;;;;;;;;5037247;28;20076;-75
2022/12/18 12:54:20;;;;;;;21.27;10.00;;;;;;;;;;5006561;28;20386;-76
2022/12/18 12:57:01;;;;;;;24.02;13.98;;;;;;;;;;5006523;28;20030;-75
2022/12/18 12:59:54;;;;;;;24.77;9.90;;;;;;;;;;4996310;28;20061;-79
2022/12/18 13:02:47;;;;;;;22.92;11.75;;;;;;;;;;5018710;28;20041;-75
2022/12/18 13:05:30;;;;;;;20.65;9.43;;;;;;;;;;5034529;28;20041;-76
2022/12/18 13:08:07;;;;;;;12.07;6.97;;;;;;;;;;5006759;28;20063;-75
2022/12/18 13:10:41;;;;;;;13.25;6.95;;;;;;;;;;5037836;28;20069;-75
2022/12/18 13:13:19;;;;;;;22.02;6.70;;;;;;;;;;5041962;28;20112;-75
2022/12/18 13:16:03;;;;;;;13.95;6.40;;;;;;;;;;4986227;28;20034;-75
2022/12/18 13:18:29;;;;;;;15.18;7.30;;;;;;;;;;5039377;28;20041;-75
2022/12/18 13:20:54;;;;;;;13.07;6.70;;;;;;;;;;4968900;28;20121;-75
2022/12/18 13:23:23;;;;;;;10.93;5.63;;;;;;;;;;5015826;28;20057;-75
2022/12/18 13:25:49;;;;;;;7.10;4.15;;;;;;;;;;5026067;28;20077;-76
2022/12/18 13:28:15;;;;;;;10.95;5.80;;;;;;;;;;5008067;28;20057;-76
2022/12/18 13:30:42;;;;;;;5.85;3.83;;;;;;;;;;5019714;28;20045;-75
2022/12/18 13:33:13;;;;;;;11.48;6.05;;;;;;;;;;4942613;28;20076;-76
2022/12/18 13:35:45;;;;;;;9.93;5.13;;;;;;;;;;5016941;28;20034;-74
2022/12/18 13:38:30;;;;;;;9.50;4.93;;;;;;;;;;5017921;28;20450;-75
2022/12/18 13:40:58;;;;;;;13.27;6.55;;;;;;;;;;5019219;28;20068;-75
2022/12/18 13:43:47;;;;;;;8.13;4.50;;;;;;;;;;5001490;28;20037;-75
2022/12/18 13:46:40;;;;;;;9.70;4.30;;;;;;;;;;5017135;28;20049;-75
2022/12/18 13:49:12;;;;;;;11.40;4.78;;;;;;;;;;5021690;28;20038;-75
2022/12/18 13:51:43;;;;;;;8.18;4.10;;;;;;;;;;5023987;28;20038;-74
2022/12/18 13:54:30;;;;;;;9.98;5.00;;;;;;;;;;5005081;28;20100;-74
2022/12/18 13:56:56;;;;;;;9.88;4.90;;;;;;;;;;5002043;28;20038;-74
2022/12/18 13:59:26;;;;;;;8.23;4.97;;;;;;;;;;5017305;28;20038;-74
2022/12/18 14:02:00;;;;;;;15.10;6.18;;;;;;;;;;5019170;28;20034;-73
2022/12/18 14:04:28;;;;;;;8.13;4.45;;;;;;;;;;5003314;28;20038;-73
2022/12/18 14:07:22;;;;;;;10.30;5.18;;;;;;;;;;5029349;28;20108;-74
2022/12/18 14:09:53;;;;;;;8.07;5.53;;;;;;;;;;5030293;28;20092;-73
2022/12/18 14:15:36;;;;;;;14.73;5.45;;;;;;;;;;5034671;28;20048;-75
2022/12/18 14:18:03;;;;;;;9.80;5.13;;;;;;;;;;5032243;28;20034;-74
2022/12/18 14:20:32;;;;;;;14.00;8.07;;;;;;;;;;5031640;28;20457;-74
2022/12/18 14:22:58;;;;;;;9.30;5.20;;;;;;;;;;5007860;28;20111;-75
2022/12/18 14:25:28;;;;;;;7.47;4.20;;;;;;;;;;5016675;28;20424;-73
2022/12/18 14:27:53;;;;;;;12.40;5.28;;;;;;;;;;5014484;28;20068;-74
2022/12/18 14:30:25;;;;;;;11.65;4.95;;;;;;;;;;5025828;28;20481;-74
2022/12/18 14:33:21;;;;;;;7.90;4.20;;;;;;;;;;5039125;28;20091;-73
2022/12/18 14:36:00;;;;;;;9.27;4.65;;;;;;;;;;5007332;28;20045;-73
2022/12/18 14:38:33;;;;;;;7.07;4.10;;;;;;;;;;5023401;28;20025;-74
2022/12/18 14:41:02;;;;;;;16.70;6.15;;;;;;;;;;5037928;28;20046;-74
2022/12/18 14:43:31;;;;;;;14.05;5.40;;;;;;;;;;5021427;28;20026;-74
2022/12/18 14:45:57;;;;;;;11.80;5.95;;;;;;;;;;5005625;28;20038;-74
2022/12/18 14:48:35;;;;;;;9.27;5.50;;;;;;;;;;5041607;28;20409;-73
2022/12/18 14:51:22;;;;;;;9.80;3.85;;;;;;;;;;5050196;28;20044;-73
2022/12/18 14:54:03;;;;;;;10.35;4.00;;;;;;;;;;5028684;28;20496;-73
2022/12/18 14:56:36;;;;;;;7.10;3.50;;;;;;;;;;5031372;28;20393;-73
2022/12/18 14:59:13;;;;;;;8.25;3.50;;;;;;;;;;5012563;28;20033;-73
2022/12/18 15:02:11;;;;;;;4.78;3.10;;;;;;;;;;5036699;28;20034;-73
2022/12/18 15:04:41;;;;;;;6.32;3.08;;;;;;;;;;5024700;28;20053;-73
2022/12/18 15:07:09;;;;;;;8.32;4.07;;;;;;;;;;5023655;28;20038;-73